Flight Track Log - Related Links

Times and Time Zones

All times are in EDT time to prevent confusion due to time zone crossing. See the DAL3741 flight status page for this flight to view local times or setup timezone preferences in your user account.

Time Position Orientation Groundspeed Altitude Reporting Facility
EDT Latitude Longitude Course Direction KTS MPH feet Rate Location/Type
Wed 03:47:14 PM 44.9333 -93.2500 66° East 170 196 3,200  Level Minneapolis TRACON
Wed 03:47:35 PM 44.9369 -93.2492 North 169 194 3,900 2,386 Climbing Minneapolis Center
Wed 03:48:37 PM 45.0025 -93.2350 North 255 293 6,500 2,488 Climbing Minneapolis Center
Wed 03:49:38 PM 45.0317 -93.1336 68° East 277 319 9,000 2,049 Climbing Minneapolis Center
Wed 03:50:40 PM 45.0661 -93.0253 66° East 301 346 10,700 1,452 Climbing Minneapolis Center
Wed 03:51:00 PM 45.0441 -92.5945 66° East  Level FlightAware Approximate
Wed 03:51:42 PM 45.1067 -92.8986 66° East 352 405 12,000  Level Minneapolis Center
Wed 03:52:00 PM 45.0797 -92.4786 66° East  Level FlightAware Approximate
Wed 03:52:43 PM 45.1522 -92.7611 65° Northeast 384 442 13,200  Level Minneapolis Center
Wed 03:53:45 PM 45.1981 -92.6183 65° Northeast 398 458 15,600 1,854 Climbing Minneapolis Center
Wed 03:54:46 PM 45.2428 -92.4772 66° East 394 453 17,000 634 Climbing Minneapolis Center
Wed 03:55:48 PM 45.2931 -92.3211 65° Northeast 438 504 16,900 -48 Descending Minneapolis Center
Wed 03:56:50 PM 45.3247 -92.1156 78° East 445 512 16,900  Level Minneapolis Center
Wed 03:57:51 PM 45.2953 -91.9625 105° East 404 465 16,900  Level Minneapolis Center
Wed 03:58:53 PM 45.2617 -91.8139 108° East 398 458 16,900  Level Minneapolis Center
Wed 04:00:09 PM 45.2297 -91.6614 107° East 401 461 16,900  Level Minneapolis Center
Wed 04:01:11 PM 45.1883 -91.4772 108° East 408 470 16,900  Level Minneapolis Center
Wed 04:02:13 PM 45.1478 -91.2972 108° East 403 464 16,900  Level Minneapolis Center
Wed 04:03:15 PM 45.1156 -91.1506 107° East 396 456 16,900  Level Minneapolis Center
Wed 04:04:16 PM 45.0897 -91.0303 107° East 397 457 16,900 49 Level Minneapolis Center
Wed 04:05:18 PM 45.0467 -90.8400 108° East 399 459 17,000 -339 Climbing Minneapolis Center
Wed 04:06:20 PM 45.0144 -90.6933 107° East 403 464 16,200 -1,548 Descending Minneapolis Center
Wed 04:07:22 PM 44.9794 -90.5406 108° East 393 452 13,800 -2,226 Descending Minneapolis Center
Wed 04:08:24 PM 44.9481 -90.3992 107° East 366 421 11,600 -1,742 Descending Minneapolis Center
Wed 04:09:26 PM 44.9203 -90.2758 108° East 317 365 10,200 -1,415 Descending Minneapolis Center
Wed 04:10:27 PM 44.8961 -90.1753 109° East 288 331 8,700 -1,268 Descending Minneapolis Center
Wed 04:11:29 PM 44.8542 -90.0939 126° Southeast 251 289 7,600 -823 Descending Minneapolis Center
Wed 04:12:31 PM 44.8028 -90.0503 149° Southeast 207 238 7,000 -339 Descending Minneapolis Center
Wed 04:13:33 PM 44.7539 -90.0103 150° Southeast 196 226 6,900 -48 Descending Minneapolis Center
Wed 04:14:35 PM 44.7028 -89.9700 151° Southeast 200 230 6,900 -194 Level Minneapolis Center
Wed 04:15:37 PM 44.7025 -89.8836 90° East 240 276 6,500 -581 Descending Minneapolis Center
Wed 04:16:39 PM 44.7081 -89.7958 85° East 216 249 5,700 -1,000 Descending Minneapolis Center
Wed 04:18:00 PM 44.7667 -89.6667 51° Northeast  Level FlightAware Approximate
Wed 04:18:43 PM 44.6889 -89.6894 51° Northeast 138 159 3,400  Level Minneapolis Center
Wed 04:19:44 PM 44.7167 -89.6611 36° Northeast 132 152 2,300 -1,082 Descending Minneapolis Center

Login

Don't have an account? Register now (free) for customized features, flight alerts, and more!